Date,TemperatureHighF,TemperatureAvgF,TemperatureLowF,DewpointHighF,DewpointAvgF,DewpointLowF,HumidityHigh,HumidityAvg,HumidityLow,PressureMaxIn,PressureMinIn,WindSpeedMaxMPH,WindSpeedAvgMPH,GustSpeedMaxMPH,PrecipitationSumIn
2013-1-1,41.0,38.1,35.8,39.4,36.2,30.6,100,93,81,30.27,30.07,8,1,10,0.00
2013-1-2,67.7,33.5,27.9,30.7,25.1,17.9,91,72,46,30.35,29.91,7,2,9,0.00
2013-1-3,50.9,34.5,24.4,30.9,26.1,21.1,95,74,41,30.38,30.24,8,1,12,0.00
2013-1-4,50.7,34.0,24.4,34.1,24.9,18.9,93,72,32,30.42,30.28,8,1,11,0.00
2013-1-5,51.8,38.7,28.0,36.2,31.0,23.1,90,75,48,30.30,30.14,8,1,10,0.00
2013-1-6,58.8,40.0,27.3,37.3,29.1,22.1,96,69,30,30.38,30.14,10,2,12,0.00
2013-1-7,55.9,35.9,22.3,34.1,24.3,18.9,92,67,25,30.45,30.20,8,1,10,0.00
2013-1-8,57.9,43.0,28.0,46.2,34.9,23.6,96,75,45,30.25,30.12,4,1,8,0.05
2013-1-9,54.1,50.4,47.1,51.4,49.3,46.2,100,96,83,30.35,30.20,12,3,17,0.90
2013-1-10,64.9,57.8,51.3,62.8,56.5,50.6,100,96,80,30.23,29.89,19,3,25,0.08
2013-1-11,70.3,55.6,40.6,53.4,48.8,40.2,100,80,45,30.02,29.91,8,2,16,0.00
2013-1-12,71.4,59.3,39.9,68.8,57.7,39.3,100,95,82,29.93,29.69,16,3,22,0.72
2013-1-13,43.7,37.1,28.4,39.6,32.3,20.9,100,83,64,30.33,29.83,16,4,21,0.24
2013-1-14,38.3,29.0,24.1,20.9,15.9,8.5,73,58,31,30.47,30.29,10,3,14,0.00
2013-1-15,32.0,28.4,24.6,28.1,20.5,11.8,92,73,53,30.36,30.11,11,3,16,0.00
2013-1-16,51.4,35.8,26.2,24.7,19.9,11.4,85,56,23,30.20,30.11,8,2,11,0.02
2013-1-17,57.4,40.4,28.8,36.2,27.2,20.6,84,60,40,30.51,30.16,14,3,21,0.00
2013-1-18,58.1,39.1,23.7,34.1,27.4,20.7,92,67,31,30.58,30.31,6,1,10,0.00
2013-1-19,67.3,45.4,26.4,38.4,31.0,24.3,96,63,27,30.32,30.17,9,2,14,0.00
2013-1-20,63.1,45.2,30.0,40.6,31.0,20.2,94,63,23,30.29,30.18,9,1,14,0.00
2013-1-21,52.0,39.0,26.4,32.8,18.8,9.6,79,47,23,30.38,30.19,10,2,16,0.00
2013-1-22,42.8,31.2,21.4,23.5,19.8,15.1,85,64,39,30.44,30.30,7,1,10,0.00
2013-1-23,62.2,40.6,23.7,40.7,30.5,19.6,93,70,38,30.34,30.17,7,1,10,0.00
2013-1-24,46.2,37.3,32.4,40.2,23.6,14.8,96,59,41,30.44,30.21,12,4,20,0.00
2013-1-25,58.1,41.1,32.2,40.2,32.9,18.8,96,74,48,30.25,30.11,8,2,12,0.00
2013-1-26,53.4,44.0,28.8,41.6,32.4,26.5,100,68,37,30.35,30.24,7,1,11,0.00
2013-1-27,61.7,50.2,45.9,59.0,45.1,36.7,100,83,67,30.25,30.07,4,1,8,0.00
2013-1-28,72.3,66.4,61.0,63.2,61.2,56.7,94,84,70,30.11,30.00,11,3,18,0.01
2013-1-29,72.7,66.0,55.2,67.0,61.6,54.4,100,86,69,30.00,29.52,17,4,28,0.06
2013-1-30,55.6,45.2,31.1,55.3,36.5,23.2,100,72,46,30.06,29.54,20,6,27,0.04
2013-1-31,63.1,42.5,25.2,32.8,25.1,8.4,93,55,23,30.39,30.04,22,3,27,0.00
2013-2-1,42.3,30.6,21.0,17.7,8.2,-1.9,68,40,23,30.55,30.27,11,2,17,0.00
2013-2-2,60.1,41.2,25.0,33.5,27.3,16.8,85,61,31,30.27,30.17,12,2,21,0.00
2013-2-3,63.1,46.1,32.7,36.0,28.8,21.2,88,57,21,30.27,30.17,15,3,32,0.00
2013-2-4,51.6,44.9,39.4,45.1,41.9,30.8,100,90,64,30.07,29.91,4,0,8,0.01
2013-2-5,68.2,47.8,34.9,49.9,40.9,34.8,100,81,40,30.07,29.93,8,1,14,0.01
2013-2-6,59.9,48.7,34.2,46.0,41.2,34.2,100,77,51,30.20,30.03,10,2,14,0.00
2013-2-7,65.8,54.1,44.2,55.8,49.6,40.7,100,85,67,30.04,29.90,9,1,13,0.12
2013-2-8,57.4,48.2,37.6,53.2,38.7,33.1,100,71,44,30.31,29.98,11,4,14,0.14
2013-2-9,48.6,40.3,32.4,41.6,34.5,28.9,94,80,60,30.32,29.98,8,3,14,0.04
2013-2-10,72.7,57.3,41.7,61.3,48.1,32.8,100,74,38,29.99,29.71,13,3,18,0.26
2013-2-11,64.8,48.6,36.9,40.0,32.5,22.9,92,60,24,30.19,29.99,7,1,8,0.00
2013-2-12,45.0,40.4,32.9,42.1,37.2,31.4,97,89,65,30.16,29.86,11,2,15,0.24
2013-2-13,53.6,43.2,33.8,40.5,36.2,31.7,97,78,48,30.05,29.88,15,4,22,0.01
2013-2-14,67.1,46.4,29.7,41.1,33.5,28.2,100,68,26,30.09,29.99,13,2,15,0.00
2013-2-15,49.1,43.6,34.7,38.3,30.7,14.2,89,62,41,30.20,30.02,11,3,17,0.00
2013-2-16,47.5,37.0,26.1,27.1,18.4,9.3,68,49,23,30.06,29.96,14,3,21,0.00
2013-2-17,63.9,48.2,34.7,39.4,28.0,18.5,69,47,26,29.97,29.74,14,3,21,0.00
2013-2-18,61.5,53.3,42.6,55.7,46.2,36.7,96,77,66,29.77,29.45,15,4,24,0.32
2013-2-19,55.8,42.5,30.9,37.8,25.2,19.6,83,53,26,30.04,29.77,14,4,28,0.00
2013-2-20,36.7,32.6,29.7,27.3,20.2,7.6,88,62,33,30.12,29.90,9,3,12,0.02
2013-2-21,35.1,33.1,31.5,35.1,30.9,25.3,100,92,76,29.90,29.51,9,1,12,0.01
2013-2-22,48.9,39.0,32.0,35.4,32.1,27.8,100,78,46,29.86,29.64,11,3,16,0.04
2013-2-23,54.9,39.4,26.2,33.7,28.6,22.2,96,69,36,29.84,29.72,11,1,13,0.00
2013-2-24,58.8,43.6,27.5,36.8,32.1,25.5,97,67,38,29.83,29.63,13,3,21,0.00
2013-2-25,52.0,46.4,42.8,46.7,37.0,30.2,99,71,50,29.63,29.12,13,5,21,0.90
2013-3-3,55.4,48.0,41.9,31.7,25.8,18.0,66,44,24,30.02,29.77,11,2,22,0.01
2013-3-4,69.8,51.4,39.0,51.4,41.7,29.0,97,70,49,29.78,29.47,11,2,21,0.00
2013-3-5,57.6,48.1,39.2,50.1,30.7,14.3,100,57,21,30.04,29.51,27,8,36,0.04
2013-3-6,57.2,41.8,31.3,30.6,23.0,17.7,75,49,24,30.17,30.04,13,3,17,0.00
2013-3-7,63.3,46.5,36.1,35.0,31.7,27.5,84,60,29,30.15,30.05,11,2,14,0.00
2013-3-8,67.1,49.5,31.8,37.9,33.6,26.2,92,59,24,30.14,29.99,12,2,17,0.00
2013-3-9,76.6,60.7,48.9,55.0,45.4,38.9,75,60,32,30.33,30.01,5,2,11,0.00
2013-3-10,63.3,55.3,48.2,57.6,52.3,40.8,100,90,74,29.96,29.86,12,4,17,0.67
2013-3-11,53.1,43.2,35.4,33.8,30.2,27.7,74,61,43,30.09,30.00,11,8,17,0.67
2013-3-12,56.1,41.9,30.0,34.4,29.4,21.7,96,66,26,30.35,30.06,8,3,14,0.00
2013-3-13,63.7,53.3,36.1,36.9,26.1,16.8,56,37,20,30.56,30.27,8,4,12,0.00
2013-3-14,72.9,50.2,32.5,41.1,30.8,24.3,85,54,20,30.52,30.30,4,1,8,0.00
2013-3-15,83.8,72.7,44.1,50.5,47.6,41.0,89,42,26,30.28,30.02,12,4,18,0.00
2013-3-16,84.2,69.5,57.2,56.0,51.7,47.6,82,55,35,30.04,29.93,12,4,17,0.00
2013-3-17,62.2,47.6,43.2,53.5,45.2,43.0,100,92,73,30.06,29.83,10,4,14,0.00
2013-3-18,64.2,51.3,39.2,52.5,45.7,35.7,100,83,46,30.20,29.83,14,3,27,0.04
2013-3-19,63.5,47.6,32.2,42.4,28.1,16.0,100,56,20,30.36,30.16,9,2,13,0.00
2013-3-20,60.3,49.4,32.5,35.8,25.8,14.8,86,42,22,30.42,30.23,30,4,36,0.00
2013-3-21,50.2,39.3,33.6,34.8,19.9,8.9,100,51,24,30.25,30.02,11,4,20,0.51
2013-3-22,41.5,37.9,33.8,41.4,37.7,33.4,100,99,97,30.07,29.98,9,4,16,0.30
2013-3-23,47.7,43.8,39.9,46.8,42.6,39.7,100,96,85,30.06,29.83,8,3,10,0.01
2013-3-24,45.7,42.1,35.1,44.9,35.1,22.7,100,77,57,30.18,29.75,30,9,42,0.01
2013-3-25,45.3,36.4,29.7,23.3,21.2,19.2,68,54,40,30.43,30.17,28,7,36,0.00
2013-3-26,53.6,39.4,28.4,29.2,22.9,17.1,86,54,26,30.52,30.41,14,4,24,0.00
2013-3-27,64.2,45.6,25.5,36.3,29.2,23.5,97,59,23,30.52,30.38,8,2,12,0.00
2013-3-28,77.0,57.4,39.2,48.6,41.3,33.6,86,57,34,30.44,30.32,8,2,17,0.00
2013-3-29,63.9,55.4,49.1,57.4,50.9,41.8,100,86,60,30.37,30.28,10,1,14,0.66
2013-3-30,58.8,55.3,52.5,57.9,54.8,52.5,100,98,94,30.32,30.07,5,1,8,0.50
2013-3-31,71.6,59.1,48.6,58.1,54.2,48.3,100,86,49,30.11,29.97,8,2,11,0.00
2013-4-1,74.1,59.0,42.8,56.2,47.4,42.8,100,70,37,30.27,30.08,7,2,11,0.00
2013-4-2,54.9,45.6,38.1,47.8,36.9,29.5,100,74,49,30.41,30.27,11,5,15,0.01
2013-4-3,50.4,44.7,39.0,37.7,31.1,25.3,95,60,40,30.39,30.29,12,4,16,0.00
2013-4-4,48.7,46.1,41.4,47.7,38.4,29.3,100,77,47,30.29,30.16,10,2,12,0.00
2013-4-5,75.9,54.8,35.8,46.7,38.2,27.1,100,63,20,30.33,30.22,6,1,8,0.20
2013-4-6,78.3,61.7,43.3,46.2,43.4,40.6,93,56,27,30.23,30.02,12,2,21,0.07
2013-4-7,77.2,65.8,59.2,60.1,55.5,45.2,83,70,53,30.15,30.00,8,2,17,0.02
2013-4-8,81.0,70.3,62.2,62.7,59.4,55.8,86,69,50,30.07,29.95,11,3,17,0.06
2013-4-9,88.0,74.6,61.0,68.8,63.0,57.5,93,69,43,30.07,29.93,13,3,22,0.01
2013-4-10,83.1,70.1,45.7,71.3,64.4,44.9,100,83,56,30.01,29.75,19,5,34,0.28
2013-4-11,61.7,49.3,43.0,45.4,41.5,38.6,97,77,45,29.97,29.85,14,4,22,0.08
2013-4-12,71.4,53.7,36.1,47.6,39.5,32.6,100,65,25,30.14,29.96,17,3,27,0.06
2013-4-13,74.8,58.0,40.5,51.0,44.1,39.1,100,65,32,30.24,30.03,6,1,10,0.00
2013-4-14,78.6,63.7,50.0,61.5,55.8,49.3,100,78,51,30.03,29.81,12,2,17,0.00
2013-4-15,83.5,69.3,58.1,68.2,63.0,57.8,100,83,53,30.03,29.90,10,2,14,0.00
2013-4-16,91.8,78.8,67.6,72.5,67.9,63.7,100,72,42,30.16,30.00,11,2,16,0.00
2013-4-17,88.7,78.3,72.0,72.6,69.5,65.3,94,76,50,30.17,29.90,13,3,22,0.00
2013-4-18,78.1,63.9,45.5,70.6,59.7,36.8,100,87,72,30.07,29.83,17,6,23,0.34
2013-4-19,60.6,49.3,41.0,38.9,31.9,24.2,90,54,26,30.27,30.06,16,5,23,0.04
2013-4-20,77.4,56.2,36.0,47.2,38.5,30.2,100,60,21,30.37,30.26,8,1,10,0.00
2013-4-21,73.9,59.2,45.3,50.9,43.2,33.2,100,61,25,30.46,30.33,10,2,15,0.00
2013-4-22,77.2,58.2,42.3,51.3,46.5,42.0,100,70,30,30.36,30.14,7,1,11,0.00
2013-4-23,76.8,64.5,52.0,61.0,55.4,46.7,97,74,55,30.16,30.01,14,3,24,0.00
2013-4-24,67.1,51.3,41.5,46.9,38.9,28.6,100,68,25,30.44,30.12,13,4,19,0.18
2013-4-25,74.8,55.2,36.0,48.6,39.9,30.4,100,65,22,30.52,30.03,6,1,10,0.02
2013-4-26,62.2,56.0,49.8,55.0,50.2,43.6,95,81,53,30.11,29.90,9,2,17,0.04
2013-4-30,86.2,74.1,63.0,59.0,56.8,51.9,84,58,31,29.65,29.60,6,1,10,0.00
2013-5-1,77.0,67.9,59.7,68.4,63.2,57.7,100,86,68,29.79,29.64,8,1,11,0.11
2013-5-2,74.1,64.2,48.2,66.6,61.7,47.4,100,92,69,29.84,29.76,14,2,21,0.53
2013-5-3,48.6,43.7,38.5,47.8,40.5,36.6,100,89,69,29.82,29.68,14,5,21,0.02
2013-5-4,56.1,48.6,43.2,44.2,42.7,39.1,100,81,57,30.08,29.60,9,2,11,0.07
2013-5-5,64.4,52.4,39.9,54.2,45.3,38.3,100,80,42,30.14,30.05,16,3,25,0.09
2013-5-6,75.2,62.1,53.1,57.4,53.1,49.5,91,74,49,30.15,30.05,14,4,16,0.04
2013-5-7,83.8,68.1,55.0,60.7,56.3,50.2,96,69,34,30.20,30.11,8,2,11,0.22
2013-5-8,59.0,57.0,55.8,58.1,56.8,55.5,100,99,96,30.18,30.15,1,0,2,0.00
2013-5-12,57.7,54.6,52.2,50.7,49.5,48.6,90,83,75,30.03,30.01,1,0,2,0.48
2013-5-13,85.1,66.1,48.2,55.6,50.9,43.6,100,65,28,30.10,29.92,9,2,16,0.00
2013-5-14,93.2,74.9,54.1,61.8,56.6,52.8,97,58,28,29.96,29.85,10,2,16,0.00
2013-5-15,86.0,72.8,59.0,66.8,59.8,51.3,83,65,49,29.93,29.79,8,2,14,0.00
2013-5-16,72.7,66.9,62.2,69.9,65.1,59.5,100,94,75,29.82,29.69,6,1,9,0.98
2013-5-17,89.6,75.3,66.9,71.5,67.3,63.2,99,80,44,29.79,29.67,6,1,10,0.91
2013-5-18,89.8,76.1,0.0,74.3,71.7,68.3,100,87,55,29.82,29.72,7,1,9,0.66
2013-5-19,90.1,79.1,68.7,72.3,70.0,66.4,100,76,48,29.77,29.64,10,2,17,0.00
2013-5-20,91.2,80.9,67.8,73.0,70.6,62.8,89,72,47,29.80,29.61,25,3,34,0.00
2013-5-21,71.4,65.8,62.6,68.2,64.8,61.8,100,96,83,29.81,29.51,19,2,28,0.12
2013-5-22,85.8,71.1,60.8,66.7,63.1,59.8,100,79,45,29.77,29.63,8,2,12,0.60
2013-5-23,86.4,73.3,59.5,70.4,63.4,59.3,100,74,46,29.98,29.77,8,1,10,0.00
2013-5-24,77.9,67.7,58.5,61.0,54.5,48.1,93,65,37,30.16,29.97,9,3,14,0.00
2013-5-25,83.3,68.8,54.0,62.0,57.0,53.1,100,70,41,30.13,29.98,7,1,12,0.00
2013-5-26,88.5,73.2,61.2,70.2,64.7,59.6,100,77,51,30.02,29.90,14,1,21,0.06
2013-5-27,89.4,77.0,64.2,70.8,66.4,63.4,100,73,44,29.92,29.76,11,2,17,0.35
2013-5-28,90.0,78.9,71.2,69.0,66.5,64.0,87,67,44,29.84,29.73,9,3,14,0.00
2013-5-29,90.0,79.0,68.0,72.4,67.0,58.5,97,70,36,29.84,29.71,11,2,16,0.00
2013-5-30,84.9,77.1,71.4,73.9,71.4,68.3,97,84,60,29.80,29.67,12,3,20,0.00
2013-5-31,88.9,81.3,71.2,76.0,75.3,70.6,100,82,62,29.74,29.59,7,2,11,0.33
2013-6-1,80.1,71.5,66.0,75.6,69.7,65.6,99,94,82,29.82,29.66,11,2,17,1.71
2013-6-2,83.3,73.6,63.9,65.9,62.5,58.2,99,71,46,29.85,29.77,8,2,13,0.00
2013-6-3,85.1,69.0,56.8,63.9,60.1,56.6,100,77,44,29.89,29.79,7,1,8,0.00
2013-6-4,85.8,72.5,59.5,68.0,63.0,58.2,100,76,44,29.88,29.77,7,1,8,0.00
2013-6-5,91.2,76.7,63.9,72.0,66.9,62.8,100,75,46,29.82,29.61,11,2,18,0.00
2013-6-6,83.5,74.9,67.3,68.1,64.9,62.4,90,72,51,29.74,29.65,7,2,11,0.00
2013-6-7,84.2,69.3,64.4,65.0,61.4,52.0,90,77,33,29.78,29.70,5,1,8,0.00
2013-6-8,89.4,74.5,62.6,64.0,60.5,54.3,96,67,32,29.83,29.75,8,1,11,0.00
2013-6-9,87.1,71.5,63.7,72.0,66.2,62.8,100,85,56,29.80,29.68,10,1,17,0.00
2013-6-10,97.0,78.7,62.6,73.8,67.5,61.8,100,74,37,29.78,29.72,10,2,14,0.00
2013-6-11,99.1,84.0,68.9,74.5,71.5,68.6,100,70,41,29.88,29.77,9,2,12,0.00
2013-6-12,96.1,82.9,73.9,74.3,72.6,69.6,96,73,44,29.89,29.77,8,2,11,0.00
2013-6-13,98.4,85.3,74.5,78.0,72.6,65.3,96,68,43,29.83,29.74,14,3,20,0.00
2013-6-14,92.1,79.5,67.6,71.2,67.7,61.8,100,70,43,29.91,29.81,4,1,8,0.00
2013-6-15,92.8,78.8,64.9,72.7,67.2,63.2,100,72,41,29.92,29.81,6,1,9,0.00
2013-6-16,95.2,80.3,72.3,76.3,72.0,68.7,95,78,44,29.90,29.78,8,1,10,0.00
2013-6-17,88.7,78.5,72.0,76.6,72.0,68.3,100,82,54,29.83,29.70,8,2,12,0.00
2013-6-18,88.3,78.4,70.3,71.0,68.7,64.3,96,74,46,29.86,29.74,6,1,8,0.00
2013-6-19,94.8,80.1,65.5,72.4,67.8,63.9,100,71,39,29.90,29.81,6,1,9,0.00
2013-6-20,93.4,81.2,68.9,72.9,70.8,68.3,100,74,45,29.96,29.88,2,1,4,0.00
2013-6-21,93.4,79.3,71.2,76.4,74.8,70.0,96,87,49,29.98,29.89,3,0,5,0.00
2013-6-22,93.2,80.8,71.8,75.5,72.0,66.3,100,77,49,29.96,29.84,7,1,10,0.00
2013-6-23,96.1,82.9,70.0,76.0,72.0,68.8,100,73,43,29.91,29.81,8,1,11,0.00
2013-6-24,96.3,83.5,71.4,76.1,72.2,69.4,100,72,44,29.96,29.84,10,1,12,0.00
2013-6-25,95.7,83.9,75.0,74.8,72.8,69.4,95,71,44,29.90,29.75,14,2,19,0.00
2013-6-26,97.7,85.3,74.5,75.7,72.7,68.5,95,68,45,29.81,29.69,14,2,27,0.00
2013-6-27,83.8,78.9,75.4,74.8,73.5,72.6,93,84,70,29.81,29.76,4,1,6,0.00
2013-7-3,64.0,61.2,55.8,59.1,56.0,50.0,84,83,81,30.13,30.01,0,0,0,4.23
2013-7-4,90.7,74.2,57.0,64.5,58.6,53.2,100,64,30,30.03,29.92,8,1,11,0.00
2013-7-5,96.1,78.1,59.9,69.9,62.8,55.9,97,65,29,30.02,29.92,7,1,11,0.00
2013-7-6,92.5,77.8,66.9,73.1,68.9,65.5,100,77,44,30.02,29.92,8,1,9,0.00
2013-7-7,95.7,81.8,68.2,75.4,70.0,66.2,100,72,40,30.04,29.96,7,1,11,0.00
2013-7-8,98.6,83.9,71.6,75.9,72.3,69.7,100,71,41,30.09,30.00,8,1,11,0.00
2013-7-9,100.4,86.7,72.9,75.0,71.9,68.6,97,65,39,30.09,29.94,8,2,12,0.00
2013-7-10,104.0,84.3,73.6,77.6,72.3,66.3,100,71,34,30.00,29.86,17,2,25,0.00
2013-7-11,99.5,83.3,71.1,79.0,72.5,68.6,100,73,42,29.95,29.87,7,1,9,0.02
2013-7-12,94.1,81.3,70.5,69.9,59.8,49.4,85,53,24,30.04,29.93,8,2,10,0.00
2013-7-13,88.9,66.6,59.5,64.5,59.7,57.9,96,80,37,30.01,29.94,3,0,4,0.00
2013-7-14,90.3,75.8,61.5,72.5,65.5,61.5,100,73,43,30.02,29.93,8,1,13,0.00
2013-7-15,93.0,81.7,70.5,74.8,71.6,69.2,100,74,48,30.13,30.01,8,2,11,0.00
2013-7-16,93.6,83.5,74.1,76.0,72.5,68.4,100,72,45,30.22,30.12,10,2,13,0.00
2013-7-17,97.7,84.8,70.7,74.8,70.7,66.1,100,67,39,30.27,30.13,9,1,11,0.00
2013-7-18,96.4,75.5,71.8,74.2,71.5,67.1,95,88,43,30.17,30.03,7,1,9,0.00
2013-7-19,95.7,80.7,69.6,73.8,71.1,68.2,100,77,44,30.03,29.89,8,1,11,0.00
2013-7-20,98.2,81.7,71.6,76.2,72.1,69.2,100,77,41,29.94,29.81,8,1,11,0.00
2013-7-21,93.6,85.2,71.8,75.0,71.7,68.0,97,65,45,29.92,29.83,8,2,11,0.00
2013-7-22,95.5,80.0,72.5,77.5,73.0,68.2,100,81,43,29.96,29.83,21,3,31,0.00
2013-7-23,90.7,79.3,72.3,78.1,72.8,67.9,100,82,52,29.93,29.77,11,2,17,0.00
2013-7-24,93.0,80.8,72.9,73.4,71.6,68.8,95,75,49,29.95,29.82,7,1,9,0.00
2013-7-25,91.2,77.2,68.0,72.5,66.5,60.5,100,73,40,30.05,29.95,7,1,9,0.00
2013-7-26,75.6,69.8,65.1,70.2,67.6,64.9,100,93,76,30.04,29.94,4,0,6,0.08
2013-7-27,92.1,76.2,66.0,71.0,66.3,52.4,100,76,31,29.98,29.87,7,1,11,0.13
2013-7-28,92.1,76.2,64.4,70.2,65.2,60.9,96,71,44,30.02,29.94,7,1,10,0.00
2013-7-29,91.0,79.1,67.5,75.3,70.0,65.0,94,75,55,30.09,30.00,6,1,10,0.00
2013-7-30,90.0,80.8,77.4,77.0,74.7,72.5,93,82,61,30.05,29.96,8,1,11,0.00
2013-7-31,95.2,81.2,73.8,77.7,74.7,69.7,100,83,52,30.03,29.89,12,2,24,0.00
2013-8-1,95.0,80.9,71.8,76.4,72.3,68.1,100,78,44,30.05,29.93,7,1,10,0.00
2013-8-2,93.4,80.0,66.7,78.7,72.5,66.5,100,80,53,29.99,29.89,5,1,8,0.00
2013-8-3,88.9,79.9,72.7,76.8,74.3,70.7,97,84,59,30.04,29.88,14,2,21,0.00
2013-9-1,102.6,84.1,72.0,74.8,71.9,67.6,97,70,36,29.84,29.76,7,1,10,0.00
2013-9-2,94.8,78.7,75.4,75.4,73.0,70.4,94,83,47,29.91,29.81,4,0,6,0.00
2013-9-3,96.3,79.9,68.5,71.1,65.7,60.9,90,65,34,30.01,29.89,8,1,11,0.00
2013-9-4,88.9,70.2,59.7,68.9,61.9,56.7,100,79,38,30.11,29.99,8,1,11,0.00
2013-9-5,93.6,75.3,59.9,67.0,62.5,59.6,100,70,35,30.14,30.05,8,1,10,0.00
2013-9-6,95.4,73.4,60.8,68.9,64.4,60.8,100,78,36,30.11,30.02,6,1,8,0.00
2013-9-7,102.9,90.2,67.3,71.7,66.1,61.3,100,48,28,30.03,29.90,6,1,8,0.00
2013-9-8,105.3,85.8,68.7,71.8,67.2,57.7,95,59,22,29.94,29.83,8,1,11,0.00
2013-9-9,103.3,85.7,71.4,71.9,67.6,63.0,90,59,32,29.98,29.88,9,1,11,0.00
2013-9-10,102.9,83.9,68.5,72.0,67.3,61.1,96,63,26,30.09,29.96,7,1,11,0.00
2013-9-11,97.0,79.7,71.4,76.6,72.3,66.8,100,81,43,30.11,30.01,10,1,16,0.00
2013-9-12,77.2,73.9,71.6,75.6,73.4,70.7,100,98,94,30.03,30.00,2,0,3,0.01
2013-9-14,81.9,67.9,56.5,55.4,53.6,50.2,90,64,34,30.07,30.01,7,1,9,0.19
2013-9-15,94.1,69.2,49.3,60.2,54.4,49.0,100,67,25,30.10,30.02,7,1,9,0.00
2013-9-16,94.5,76.2,61.9,68.6,61.0,55.1,95,65,31,30.16,30.06,8,2,14,0.00
2013-9-17,92.3,77.0,62.6,68.3,65.0,59.3,100,70,35,30.16,30.01,8,2,9,0.00
2013-9-18,97.9,79.6,70.0,72.3,67.9,63.9,95,71,35,30.07,29.96,7,1,8,0.00
2013-9-19,94.5,81.3,70.7,73.6,70.6,67.0,96,72,44,30.06,29.91,8,1,13,0.00
2013-9-20,80.2,72.3,68.0,73.5,69.8,65.6,100,92,66,29.94,29.84,9,1,10,0.00
2013-9-21,83.8,70.4,58.8,65.4,54.1,46.8,92,61,30,29.97,29.87,11,2,14,0.00
2013-9-22,82.0,64.7,50.5,58.6,53.5,49.8,100,72,34,29.98,29.88,6,1,11,0.00
2013-9-23,85.3,66.3,51.1,60.2,55.6,50.8,100,74,38,29.94,29.85,8,1,11,0.00
2013-9-24,93.6,73.3,58.6,64.4,59.4,49.6,100,68,26,29.88,29.77,8,1,10,0.00
2013-9-25,88.5,70.2,58.6,62.3,58.4,55.7,97,70,36,29.86,29.80,8,2,14,0.00
2013-9-26,90.9,73.8,56.8,68.2,62.3,56.6,100,72,36,29.97,29.85,6,1,10,0.00
2013-9-27,91.4,74.4,63.7,71.8,65.8,62.8,100,78,41,30.06,29.95,9,1,12,0.00
2013-9-28,91.2,75.3,67.6,72.7,67.0,63.4,97,78,42,30.08,29.97,8,2,14,0.00
2013-9-29,78.3,73.4,70.5,73.2,70.9,69.0,99,92,78,30.00,29.92,6,1,10,0.00
2013-9-30,80.4,72.0,68.4,70.5,69.2,68.1,100,91,70,29.95,29.89,6,2,8,0.00
2013-10-2,70.3,69.3,68.5,69.7,68.9,68.2,100,99,99,30.01,29.99,2,1,2,0.00
2013-10-3,85.6,75.2,67.8,74.3,70.5,67.5,99,87,63,30.00,29.91,2,1,4,0.00
2013-10-4,89.1,77.7,71.4,73.7,71.8,69.6,95,82,54,29.98,29.93,4,1,7,0.00
2013-10-5,85.6,73.6,60.1,77.1,70.7,54.9,97,91,67,29.99,29.86,12,2,17,0.00
2013-10-6,72.0,60.4,52.2,56.3,50.5,44.7,100,74,41,30.02,29.92,14,4,17,0.00
2013-10-7,78.3,60.9,48.9,52.0,48.9,45.8,100,68,36,30.12,29.99,10,2,16,0.00
2013-10-8,76.5,58.8,45.1,57.2,48.4,44.3,100,74,34,30.16,30.06,11,1,16,0.00
2013-10-9,81.9,61.3,46.2,59.0,53.2,45.2,100,79,41,30.14,30.05,6,0,9,0.00
2013-10-10,83.8,65.6,54.1,65.2,58.7,53.3,100,82,42,30.14,29.99,5,1,9,0.00
2013-10-11,85.1,65.0,55.0,68.6,59.8,54.2,100,86,44,30.04,29.93,7,1,10,0.00
2013-10-12,82.2,64.8,61.9,69.9,63.7,60.6,100,96,61,30.13,29.95,3,0,5,0.00
2013-10-13,79.9,68.4,57.6,66.1,58.5,51.8,99,74,45,30.29,30.13,9,2,11,0.00
2013-10-14,74.7,63.0,55.0,65.1,57.4,49.6,100,83,62,30.24,30.03,4,0,6,0.00
2013-10-15,70.3,66.9,64.2,69.5,66.1,63.4,100,97,90,30.03,29.91,7,1,11,0.48
2013-10-16,65.3,59.2,54.5,65.0,54.9,50.0,100,86,63,30.06,29.97,7,2,14,0.15
2013-10-17,72.9,58.5,48.4,56.9,51.0,46.9,100,79,43,30.06,29.97,8,2,12,0.02
2013-10-18,77.4,57.5,43.0,57.5,50.1,43.0,100,80,35,30.06,29.93,4,1,8,0.00
2013-10-19,68.2,54.5,42.6,55.4,44.6,30.0,100,74,24,30.10,29.80,11,2,14,0.09
2013-10-20,65.3,45.2,37.2,49.6,41.7,35.4,100,90,42,30.07,30.00,8,0,11,0.06
2013-10-21,73.8,57.1,45.3,55.1,50.1,44.5,100,81,43,30.11,29.98,8,1,10,0.00
2013-10-22,72.0,56.5,42.4,52.6,46.6,39.5,100,74,35,30.13,29.95,8,2,14,0.00
2013-10-23,70.2,52.7,41.0,50.1,41.3,33.9,100,70,28,30.19,30.03,8,1,10,0.00
2013-10-24,66.6,52.2,42.3,49.0,41.3,33.5,100,71,36,30.40,30.09,11,2,14,0.00
2013-10-25,61.2,45.4,33.6,37.6,30.6,23.6,94,61,25,30.53,30.31,8,1,11,0.00
2013-10-26,67.1,47.4,36.9,52.3,41.3,34.4,100,83,42,30.31,30.12,9,1,14,0.01
2013-10-27,55.8,53.4,48.7,54.6,52.4,48.5,100,96,91,30.12,30.06,4,0,7,0.15
2013-10-28,67.5,58.8,54.7,63.9,56.9,53.7,100,94,77,30.23,30.08,3,0,4,0.00
2013-10-29,83.7,64.8,52.2,67.3,59.9,52.2,100,86,48,30.22,29.81,11,2,14,0.00
2013-10-30,72.9,67.8,63.1,66.7,64.7,62.2,100,90,79,30.15,29.95,8,1,11,0.01
2013-10-31,78.1,68.1,56.8,69.8,62.5,46.6,100,84,39,29.95,29.55,18,4,25,0.84
2013-11-1,76.3,58.8,43.5,53.5,44.9,33.5,100,67,24,29.97,29.82,11,2,16,0.00
2013-11-2,67.8,55.5,40.5,39.8,37.5,33.1,94,54,34,30.10,30.00,11,3,18,0.00
2013-11-3,64.9,45.2,34.0,44.3,39.5,34.0,100,83,38,30.16,30.00,6,0,10,0.00
2013-11-4,59.2,52.6,45.9,55.1,49.1,43.0,97,88,69,30.10,29.99,6,0,8,0.09
2013-11-5,68.0,60.6,53.2,58.6,55.6,52.8,100,85,67,30.09,29.92,7,1,11,0.17
2013-11-6,68.0,57.4,43.9,66.3,54.9,38.7,100,91,80,30.18,29.87,11,3,17,0.24
2013-11-7,66.2,47.1,34.5,42.5,38.6,33.1,100,76,33,30.31,30.18,7,1,9,0.00
2013-11-8,69.8,49.8,35.6,47.8,38.9,32.5,100,72,28,30.23,30.04,6,1,9,0.00
2013-11-9,71.8,53.6,42.8,50.0,46.6,41.2,100,80,38,30.15,30.03,7,1,9,0.00
2013-11-10,69.1,58.0,49.5,52.2,46.6,40.4,100,70,37,30.24,30.13,8,2,11,0.00
2013-11-11,73.9,52.8,40.3,50.7,47.8,40.0,99,86,36,30.15,30.05,5,0,10,0.00
2013-11-12,60.3,44.2,27.5,52.7,26.5,8.6,85,53,22,30.54,30.12,14,4,23,0.00
2013-11-13,55.6,34.7,20.7,23.0,17.8,12.2,85,55,21,30.55,30.25,6,1,8,0.00
2013-11-14,63.0,42.8,23.5,33.3,24.1,17.9,93,54,21,30.25,29.95,8,1,11,0.00
2013-11-15,56.7,51.3,41.5,53.2,45.7,30.7,91,81,58,29.98,29.81,4,0,6,0.00
2013-11-16,72.3,63.3,55.2,67.4,60.8,52.8,100,92,83,29.85,29.63,12,2,21,0.00
2013-11-17,88.0,73.3,62.1,71.5,57.2,26.5,100,64,23,29.92,29.54,13,4,22,0.00
2013-11-18,71.1,56.5,42.6,38.5,30.9,21.7,75,40,19,30.14,29.92,11,3,14,0.00
2013-11-19,59.9,48.5,39.9,35.6,30.0,22.9,76,51,26,30.19,30.00,8,2,13,0.00
2013-11-20,68.7,48.1,34.9,41.3,33.3,24.3,93,63,21,30.03,29.90,7,1,11,0.00
2013-11-21,59.2,54.6,48.0,58.7,51.4,39.9,99,89,69,30.01,29.92,6,1,11,0.73
2013-11-22,59.2,47.4,41.2,58.9,43.8,37.9,100,87,79,30.28,30.00,11,4,17,0.73
2013-11-23,47.7,40.7,32.2,38.2,28.7,7.2,96,67,27,30.45,30.28,13,4,18,0.04
2013-11-24,34.0,29.8,23.5,17.5,12.1,6.9,57,47,34,30.54,30.28,11,4,14,0.00
2013-11-25,34.5,32.5,30.9,34.0,26.3,17.2,100,80,54,30.28,30.01,7,1,8,0.11
2013-11-26,50.5,39.6,32.9,37.2,31.5,19.7,100,75,53,30.08,29.86,17,4,21,0.02
2013-11-27,44.1,31.9,22.3,21.1,13.9,6.8,83,50,25,30.23,30.08,11,3,15,0.00
2013-11-28,57.2,35.4,19.6,29.4,21.4,16.0,91,63,22,30.30,30.20,8,1,10,0.00
2013-11-29,66.4,39.6,24.4,35.4,26.7,22.5,97,67,22,30.39,30.25,6,0,8,0.00
2013-11-30,63.3,43.7,27.1,42.7,34.7,25.7,100,75,30,30.25,30.04,8,1,12,0.00
2013-12-1,65.1,57.6,42.6,52.6,50.5,41.2,95,78,59,30.04,29.86,5,1,12,0.00
2013-12-2,74.5,55.6,45.3,55.8,51.1,44.5,100,87,47,29.86,29.66,5,0,8,0.00
2013-12-3,56.5,52.2,47.5,56.2,51.9,47.2,100,99,97,29.69,29.57,4,1,8,0.00
2013-12-4,76.5,63.8,56.5,62.7,58.2,47.7,100,84,54,29.80,29.60,11,2,17,0.00
2013-12-5,58.3,41.1,33.4,48.2,35.9,28.6,100,82,65,30.13,29.80,10,4,18,0.58
2013-12-6,34.3,29.8,24.6,34.3,27.3,18.8,100,90,77,30.43,30.03,8,1,11,0.14
2013-12-7,37.2,23.3,18.9,25.0,14.0,7.7,83,67,52,30.55,30.27,8,1,29,0.00
2013-12-8,32.0,26.9,22.3,30.7,23.3,15.9,100,86,72,30.27,27.22,8,1,11,0.00
2013-12-9,34.0,32.1,30.7,31.3,27.3,24.3,100,83,72,30.25,30.09,8,2,11,0.00
2013-12-10,44.4,31.8,21.9,27.1,22.2,15.9,90,69,48,30.37,30.20,8,2,12,0.05
2013-12-11,50.4,33.0,20.5,33.9,24.2,18.5,94,73,42,30.52,30.27,8,1,13,0.01
2013-12-12,48.0,27.8,20.1,21.9,19.5,15.0,83,71,28,30.56,30.28,3,1,5,0.00
2013-12-13,51.3,36.1,25.5,36.5,29.0,19.5,97,78,31,30.28,29.81,7,1,11,0.72
2013-12-14,45.0,39.0,35.1,42.0,34.9,27.1,100,86,72,30.12,29.75,13,4,22,0.01
2013-12-15,52.9,38.6,29.1,35.1,28.5,24.7,90,69,40,30.23,30.12,8,2,12,0.00
2013-12-16,69.3,47.1,27.7,42.2,32.9,25.7,100,63,26,30.13,30.06,8,2,11,0.00
2013-12-17,72.1,48.4,31.8,40.2,33.3,21.6,96,62,16,30.26,30.10,9,1,14,0.00
2013-12-18,68.0,47.1,27.1,44.6,34.9,24.9,96,67,32,30.26,30.03,10,2,14,0.00
2013-12-19,64.8,56.7,47.3,56.7,48.3,41.6,83,74,60,30.03,29.81,12,3,19,0.00
2013-12-20,71.1,65.7,59.2,66.2,61.9,56.5,100,88,75,29.87,29.68,10,2,14,0.31
2013-12-21,69.3,52.8,47.1,68.8,52.5,46.9,100,99,85,29.69,29.44,16,3,21,2.41
2013-12-22,48.6,41.0,34.3,48.3,36.8,24.2,100,85,65,30.22,29.67,12,4,18,0.01
2013-12-23,48.4,36.4,30.7,27.1,23.9,21.6,75,61,40,30.47,30.22,10,3,13,0.00
2013-12-24,42.3,30.1,21.9,24.3,19.8,13.6,86,67,41,30.55,30.30,8,2,15,0.00
2013-12-25,54.3,36.3,21.2,34.4,27.9,19.0,96,74,42,30.32,30.24,9,1,13,0.00
2013-12-26,58.8,37.6,24.4,36.8,27.4,22.4,99,72,27,30.40,30.29,5,1,9,0.00
2013-12-27,65.8,40.0,24.4,37.5,29.2,23.0,97,71,25,30.40,30.28,4,0,6,0.00
2013-12-28,33.4,32.7,32.2,31.9,30.8,29.9,94,93,91,30.28,30.23,1,0,2,0.00
2013-12-29,61.9,44.1,33.6,42.8,34.5,22.4,100,71,46,30.25,29.99,11,3,18,0.00
2013-12-30,33.6,30.4,23.9,24.2,20.5,17.2,86,66,58,30.37,30.24,8,2,11,0.00
2013-12-31,54.9,35.9,21.2,31.9,25.9,19.5,96,71,31,30.47,30.28,8,1,12,0.00
2014-1-1,59.7,40.7,23.9,43.2,32.6,22.5,100,76,39,30.28,29.97,8,1,14,0.00
2014-1-2,48.0,33.7,22.8,43.1,17.3,7.0,88,52,31,30.47,29.96,17,6,23,0.00